Terminal Aerodrome Forecast
Issued by NWS Twin Cities, MN

Home | Current Version | Previous Version | Text Only | Print | Product List | Glossary Off
Versions: 1 2 3 4 5 6 7 8 9 10 11 12 13 14 15 16

160
FTUS43 KMPX 192113 AAA
TAFSTC
TAF AMD
KSTC 192113Z 1921/2018 02012KT P6SM OVC040
     FM192300 02013KT 6SM BR OVC015
     FM200000 03011G17KT 4SM -SN OVC015
     FM200400 04008KT P6SM OVC019 PROB30 2006/2007 2SM -SN OVC015
     FM200700 04008KT 2SM -SN OVC015
     FM200900 03008KT 1SM -SN OVC010=

USA.gov is the U.S. government's official web portal to all federal, state and local government web resources and services.